OOCL Nagoya — VRFX8 — position and weather

sailwx.info

Track history (hours):
 
Tides and Currents Weather Stations Pressure Air Temp Water Temp Dewpoint Dewpoint Depression Visibility Wind Speed Wind Dir Waves Ship Positions

OOCL Nagoya

Last reported at 2017-May-25 15:41 UTC. Time now 2017-May-25 23:49 UTC.
Position N 33°51' E 134°54'.

Length 261 m; draft 11.4 m.

Type: Cargo ship. MMSI: 477627900.

Date/timePositionNaut miles runAvg speedWind from/ knotsBaromVisibWave heightAir tempDewpointWater temp
2017-May-25 15:41N 33°51' E 134°54'517.0
2017-May-25 15:22N 33°57' E 134°54'616.7
2017-May-25 15:01N 34°03' E 134°55'1414.0
2017-May-25 14:00N 34°16' E 134°58'916.8
2017-May-25 13:30N 34°24' E 135°02'919.4
2017-May-25 13:00N 34°31' E 135°10'917.6
2017-May-25 12:30N 34°38' E 135°16'2 3.4
2017-May-25 11:59N 34°40' E 135°14'0 0.0
2017-May-25 11:29N 34°40' E 135°14'0 0.0
2017-May-25 10:59N 34°40' E 135°14'0 0.0
2017-May-25 10:29N 34°40' E 135°14'0 0.0
2017-May-25 09:59N 34°40' E 135°14'0 0.1
2017-May-25 09:29N 34°40' E 135°14'0 0.0
2017-May-25 08:47N 34°40' E 135°14'0 0.0
2017-May-25 08:29N 34°40' E 135°14'0 0.0
2017-May-25 07:59N 34°40' E 135°14'0 0.1
2017-May-25 07:29N 34°40' E 135°14'0 0.0
2017-May-25 06:53N 34°40' E 135°14'0 0.0
2017-May-25 06:29N 34°40' E 135°14'0 0.0
2017-May-25 05:59N 34°40' E 135°14'0 0.1
2017-May-25 05:23N 34°40' E 135°14'0 0.0
2017-May-25 04:59N 34°40' E 135°14'0 0.1
2017-May-25 04:29N 34°40' E 135°14'0 0.0
2017-May-25 03:59N 34°40' E 135°14'0 0.0
2017-May-25 03:23N 34°40' E 135°14'0 0.1
2017-May-25 02:59N 34°40' E 135°14'0 0.1
2017-May-25 02:29N 34°40' E 135°14'0 0.0
2017-May-25 01:59N 34°40' E 135°14'0 0.0
2017-May-25 01:29N 34°40' E 135°14'0 0.0
2017-May-25 00:59N 34°40' E 135°14'0 0.0
2017-May-25 00:29N 34°40' E 135°14'0 0.0
2017-May-24 23:59N 34°40' E 135°14'0 0.1
2017-May-24 23:29N 34°40' E 135°14'0 0.1
2017-May-24 22:59N 34°40' E 135°14'0 0.3
2017-May-24 22:30N 34°40' E 135°15'3 6.4
2017-May-24 22:00N 34°37' E 135°16'612.7
2017-May-24 21:31N 34°31' E 135°13'816.7
2017-May-24 21:00N 34°25' E 135°06'917.3
2017-May-24 20:30N 34°18' E 134°59'816.4
2017-May-24 20:00N 34°10' E 135°00'612.5
2017-May-24 19:30N 34°04' E 135°00'612.0
2017-May-24 19:00N 33°57' E 134°60'210 4.9
2017-May-23 00:16N 34°41' E 139°08'1118.0
2017-May-22 23:38N 34°50' E 139°17'318.5
2017-May-22 23:30N 34°52' E 139°19'918.2
2017-May-22 23:00N 34°58' E 139°27'918.3
2017-May-22 22:30N 35°03' E 139°37'816.4
2017-May-22 22:00N 35°08' E 139°44'613.0
2017-May-22 21:30N 35°14' E 139°46'612.7
2017-May-22 21:00N 35°20' E 139°43'713.9
2017-May-22 20:30N 35°26' E 139°46'715.0
2017-May-22 20:00N 35°33' E 139°51'5 9.3
2017-May-22 19:31N 35°36' E 139°47'0 0.4
2017-May-22 18:58N 35°36' E 139°47'0 0.0
2017-May-22 18:25N 35°36' E 139°47'0 0.0
2017-May-22 17:55N 35°36' E 139°47'0 0.0
2017-May-22 17:28N 35°36' E 139°47'0 0.0
2017-May-22 16:58N 35°36' E 139°47'0 0.0
2017-May-22 16:28N 35°36' E 139°47'0 0.0
2017-May-22 15:58N 35°36' E 139°47'0 0.0
2017-May-22 15:28N 35°36' E 139°47'0 0.0
2017-May-22 14:58N 35°36' E 139°47'0 0.0
2017-May-22 13:55N 35°36' E 139°47'0 0.0
2017-May-22 13:25N 35°36' E 139°47'0 0.0
2017-May-22 12:58N 35°36' E 139°47'0 0.0
2017-May-22 12:28N 35°36' E 139°47'0 0.0
2017-May-22 11:58N 35°36' E 139°47'0 0.0
2017-May-22 11:28N 35°36' E 139°47'0 0.0
2017-May-22 10:55N 35°36' E 139°47'0 0.0
2017-May-22 10:28N 35°36' E 139°47'0 0.0
2017-May-22 09:58N 35°36' E 139°47'0 0.0
2017-May-22 09:28N 35°36' E 139°47'0 0.0
2017-May-22 08:58N 35°36' E 139°47'0 0.0
2017-May-22 08:22N 35°36' E 139°47'0 0.0
2017-May-22 07:58N 35°36' E 139°47'0 0.0
2017-May-22 07:28N 35°36' E 139°47'0 0.0
2017-May-22 06:55N 35°36' E 139°47'0 0.0
2017-May-22 06:28N 35°36' E 139°47'0 0.0
2017-May-22 05:58N 35°36' E 139°47'0 0.0
2017-May-22 05:28N 35°36' E 139°47'0 0.0
2017-May-22 04:55N 35°36' E 139°47'0 0.0
2017-May-22 04:28N 35°36' E 139°47'0 0.0
2017-May-22 03:58N 35°36' E 139°47'0 0.7
2017-May-22 03:31N 35°36' E 139°47'4 8.8
2017-May-22 03:01N 35°33' E 139°51'4 8.2
2017-May-22 02:30N 35°29' E 139°51'713.9
2017-May-22 02:00N 35°23' E 139°46'612.0
2017-May-22 01:30N 35°17' E 139°45'612.6
2017-May-22 01:00N 35°11' E 139°47'5 9.0
2017-May-22 00:30N 35°07' E 139°46'5 9.3
2017-May-22 00:00N 35°03' E 139°43'612.5
2017-May-21 23:30N 34°59' E 139°37'713.7
2017-May-21 23:00N 34°56' E 139°29'611.2
2017-May-21 22:30N 34°53' E 139°23'711.2
2017-May-21 21:51N 34°48' E 139°18'612.9
2017-May-21 21:22N 34°43' E 139°13'36216.9
2017-May-21 00:00N 31°48' E 132°54'22718.9 130 / 131018.410.8 24.014.622.0
2017-May-20 12:00N 29°54' E 129°06'12721.2 080 / 181014.510.8 23.117.4
2017-May-20 06:00N 28°42' E 127°06'12821.3 110 / 121014.010.8
2017-May-20 00:00N 27°30' E 125°06'35019.5 070 / 191014.610.8 24.816.1
2017-May-19 06:00N 23°54' E 120°00'6920.8 360 / 71010.8 5.4 26.021.8
2017-May-19 02:41N 22°46' E 120°05'419.8
2017-May-19 02:30N 22°43' E 120°08'918.7
2017-May-19 02:00N 22°34' E 120°12'612.8
2017-May-19 01:30N 22°33' E 120°19'1 2.5
2017-May-19 00:55N 22°34' E 120°18'0 0.0
2017-May-19 00:28N 22°34' E 120°18'0 0.0
2017-May-18 23:52N 22°34' E 120°18'0 0.0
2017-May-18 23:22N 22°34' E 120°18'0 0.0
2017-May-18 22:46N 22°34' E 120°18'0 0.0
2017-May-18 22:28N 22°34' E 120°18'0 0.0
2017-May-18 21:52N 22°34' E 120°18'0 0.0
2017-May-18 21:25N 22°34' E 120°18'0 0.0
2017-May-18 20:55N 22°34' E 120°18'0 0.0
2017-May-18 20:25N 22°34' E 120°18'0 0.0
2017-May-18 19:55N 22°34' E 120°18'0 0.0
2017-May-18 19:25N 22°34' E 120°18'0 0.1
2017-May-18 18:58N 22°34' E 120°18'0 0.0
2017-May-18 18:19N 22°34' E 120°18'0 0.0
2017-May-18 17:58N 22°34' E 120°18'0 0.0
2017-May-18 17:25N 22°34' E 120°18'0 0.0
2017-May-18 16:52N 22°34' E 120°18'0 0.0
2017-May-18 16:28N 22°34' E 120°18'0 0.0
2017-May-18 16:01N 22°34' E 120°18'1 3.0
2017-May-18 15:31N 22°33' E 120°18'510.0
2017-May-18 15:00N 22°32' E 120°13'1616.1
2017-May-18 14:00N 22°30' E 119°55'5728.4
2017-May-18 12:00N 22°24' E 118°54'11719.5 060 / 211012.9 5.4 26.421.6
2017-May-18 06:00N 22°12' E 116°48'182 6.1 050 / 20 10.8 26.120.5
2017-May-17 00:00N 21°00' E 113°48'13311.0 070 / 171009.110.8 27.020.6
2017-May-16 12:00N 19°06' E 112°36'16513.7 330 / 31006.610.8 28.224.1
2017-May-16 00:00N 16°36' E 111°24'   240 / 191007.910.8 29.525.3
Track history (hours):
 
Tides and Currents Weather Stations Pressure Air Temp Water Temp Dewpoint Dewpoint Depression Visibility Wind Speed Wind Dir Waves Ship Positions

OOCL Nagoya

Last reported at 2017-May-25 15:41 UTC. Time now 2017-May-25 23:49 UTC.
Position N 33°51' E 134°54'.

Length 261 m; draft 11.4 m.

Type: Cargo ship. MMSI: 477627900.

Date/timePositionNaut miles runAvg speedWind from/ knotsBaromVisibWave heightAir tempDewpointWater temp
2017-May-25 15:41N 33°51' E 134°54'517.0
2017-May-25 15:22N 33°57' E 134°54'616.7
2017-May-25 15:01N 34°03' E 134°55'1414.0
2017-May-25 14:00N 34°16' E 134°58'916.8
2017-May-25 13:30N 34°24' E 135°02'919.4
2017-May-25 13:00N 34°31' E 135°10'917.6
2017-May-25 12:30N 34°38' E 135°16'2 3.4
2017-May-25 11:59N 34°40' E 135°14'0 0.0
2017-May-25 11:29N 34°40' E 135°14'0 0.0
2017-May-25 10:59N 34°40' E 135°14'0 0.0
2017-May-25 10:29N 34°40' E 135°14'0 0.0
2017-May-25 09:59N 34°40' E 135°14'0 0.1
2017-May-25 09:29N 34°40' E 135°14'0 0.0
2017-May-25 08:47N 34°40' E 135°14'0 0.0
2017-May-25 08:29N 34°40' E 135°14'0 0.0
2017-May-25 07:59N 34°40' E 135°14'0 0.1
2017-May-25 07:29N 34°40' E 135°14'0 0.0
2017-May-25 06:53N 34°40' E 135°14'0 0.0
2017-May-25 06:29N 34°40' E 135°14'0 0.0
2017-May-25 05:59N 34°40' E 135°14'0 0.1
2017-May-25 05:23N 34°40' E 135°14'0 0.0
2017-May-25 04:59N 34°40' E 135°14'0 0.1
2017-May-25 04:29N 34°40' E 135°14'0 0.0
2017-May-25 03:59N 34°40' E 135°14'0 0.0
2017-May-25 03:23N 34°40' E 135°14'0 0.1
2017-May-25 02:59N 34°40' E 135°14'0 0.1
2017-May-25 02:29N 34°40' E 135°14'0 0.0
2017-May-25 01:59N 34°40' E 135°14'0 0.0
2017-May-25 01:29N 34°40' E 135°14'0 0.0
2017-May-25 00:59N 34°40' E 135°14'0 0.0
2017-May-25 00:29N 34°40' E 135°14'0 0.0
2017-May-24 23:59N 34°40' E 135°14'0 0.1
2017-May-24 23:29N 34°40' E 135°14'0 0.1
2017-May-24 22:59N 34°40' E 135°14'0 0.3
2017-May-24 22:30N 34°40' E 135°15'3 6.4
2017-May-24 22:00N 34°37' E 135°16'612.7
2017-May-24 21:31N 34°31' E 135°13'816.7
2017-May-24 21:00N 34°25' E 135°06'917.3
2017-May-24 20:30N 34°18' E 134°59'816.4
2017-May-24 20:00N 34°10' E 135°00'612.5
2017-May-24 19:30N 34°04' E 135°00'612.0
2017-May-24 19:00N 33°57' E 134°60'210 4.9
2017-May-23 00:16N 34°41' E 139°08'1118.0
2017-May-22 23:38N 34°50' E 139°17'318.5
2017-May-22 23:30N 34°52' E 139°19'918.2
2017-May-22 23:00N 34°58' E 139°27'918.3
2017-May-22 22:30N 35°03' E 139°37'816.4
2017-May-22 22:00N 35°08' E 139°44'613.0
2017-May-22 21:30N 35°14' E 139°46'612.7
2017-May-22 21:00N 35°20' E 139°43'713.9
2017-May-22 20:30N 35°26' E 139°46'715.0
2017-May-22 20:00N 35°33' E 139°51'5 9.3
2017-May-22 19:31N 35°36' E 139°47'0 0.4
2017-May-22 18:58N 35°36' E 139°47'0 0.0
2017-May-22 18:25N 35°36' E 139°47'0 0.0
2017-May-22 17:55N 35°36' E 139°47'0 0.0
2017-May-22 17:28N 35°36' E 139°47'0 0.0
2017-May-22 16:58N 35°36' E 139°47'0 0.0
2017-May-22 16:28N 35°36' E 139°47'0 0.0
2017-May-22 15:58N 35°36' E 139°47'0 0.0
2017-May-22 15:28N 35°36' E 139°47'0 0.0
2017-May-22 14:58N 35°36' E 139°47'0 0.0
2017-May-22 13:55N 35°36' E 139°47'0 0.0
2017-May-22 13:25N 35°36' E 139°47'0 0.0
2017-May-22 12:58N 35°36' E 139°47'0 0.0
2017-May-22 12:28N 35°36' E 139°47'0 0.0
2017-May-22 11:58N 35°36' E 139°47'0 0.0
2017-May-22 11:28N 35°36' E 139°47'0 0.0
2017-May-22 10:55N 35°36' E 139°47'0 0.0
2017-May-22 10:28N 35°36' E 139°47'0 0.0
2017-May-22 09:58N 35°36' E 139°47'0 0.0
2017-May-22 09:28N 35°36' E 139°47'0 0.0
2017-May-22 08:58N 35°36' E 139°47'0 0.0
2017-May-22 08:22N 35°36' E 139°47'0 0.0
2017-May-22 07:58N 35°36' E 139°47'0 0.0
2017-May-22 07:28N 35°36' E 139°47'0 0.0
2017-May-22 06:55N 35°36' E 139°47'0 0.0
2017-May-22 06:28N 35°36' E 139°47'0 0.0
2017-May-22 05:58N 35°36' E 139°47'0 0.0
2017-May-22 05:28N 35°36' E 139°47'0 0.0
2017-May-22 04:55N 35°36' E 139°47'0 0.0
2017-May-22 04:28N 35°36' E 139°47'0 0.0
2017-May-22 03:58N 35°36' E 139°47'0 0.7
2017-May-22 03:31N 35°36' E 139°47'4 8.8
2017-May-22 03:01N 35°33' E 139°51'4 8.2
2017-May-22 02:30N 35°29' E 139°51'713.9
2017-May-22 02:00N 35°23' E 139°46'612.0
2017-May-22 01:30N 35°17' E 139°45'612.6
2017-May-22 01:00N 35°11' E 139°47'5 9.0
2017-May-22 00:30N 35°07' E 139°46'5 9.3
2017-May-22 00:00N 35°03' E 139°43'612.5
2017-May-21 23:30N 34°59' E 139°37'713.7
2017-May-21 23:00N 34°56' E 139°29'611.2
2017-May-21 22:30N 34°53' E 139°23'711.2
2017-May-21 21:51N 34°48' E 139°18'612.9
2017-May-21 21:22N 34°43' E 139°13'36216.9
2017-May-21 00:00N 31°48' E 132°54'22718.9 130 / 131018.410.8 24.014.622.0
2017-May-20 12:00N 29°54' E 129°06'12721.2 080 / 181014.510.8 23.117.4
2017-May-20 06:00N 28°42' E 127°06'12821.3 110 / 121014.010.8
2017-May-20 00:00N 27°30' E 125°06'35019.5 070 / 191014.610.8 24.816.1
2017-May-19 06:00N 23°54' E 120°00'6920.8 360 / 71010.8 5.4 26.021.8
2017-May-19 02:41N 22°46' E 120°05'419.8
2017-May-19 02:30N 22°43' E 120°08'918.7
2017-May-19 02:00N 22°34' E 120°12'612.8
2017-May-19 01:30N 22°33' E 120°19'1 2.5
2017-May-19 00:55N 22°34' E 120°18'0 0.0
2017-May-19 00:28N 22°34' E 120°18'0 0.0
2017-May-18 23:52N 22°34' E 120°18'0 0.0
2017-May-18 23:22N 22°34' E 120°18'0 0.0
2017-May-18 22:46N 22°34' E 120°18'0 0.0
2017-May-18 22:28N 22°34' E 120°18'0 0.0
2017-May-18 21:52N 22°34' E 120°18'0 0.0
2017-May-18 21:25N 22°34' E 120°18'0 0.0
2017-May-18 20:55N 22°34' E 120°18'0 0.0
2017-May-18 20:25N 22°34' E 120°18'0 0.0
2017-May-18 19:55N 22°34' E 120°18'0 0.0
2017-May-18 19:25N 22°34' E 120°18'0 0.1
2017-May-18 18:58N 22°34' E 120°18'0 0.0
2017-May-18 18:19N 22°34' E 120°18'0 0.0
2017-May-18 17:58N 22°34' E 120°18'0 0.0
2017-May-18 17:25N 22°34' E 120°18'0 0.0
2017-May-18 16:52N 22°34' E 120°18'0 0.0
2017-May-18 16:28N 22°34' E 120°18'0 0.0
2017-May-18 16:01N 22°34' E 120°18'1 3.0
2017-May-18 15:31N 22°33' E 120°18'510.0
2017-May-18 15:00N 22°32' E 120°13'1616.1
2017-May-18 14:00N 22°30' E 119°55'5728.4
2017-May-18 12:00N 22°24' E 118°54'11719.5 060 / 211012.9 5.4 26.421.6
2017-May-18 06:00N 22°12' E 116°48'182 6.1 050 / 20 10.8 26.120.5
2017-May-17 00:00N 21°00' E 113°48'13311.0 070 / 171009.110.8 27.020.6
2017-May-16 12:00N 19°06' E 112°36'16513.7 330 / 31006.610.8 28.224.1
2017-May-16 00:00N 16°36' E 111°24'   240 / 191007.910.8 29.525.3

Dump ship's entire track history